Lähimpiä lentokenttien sääasemia

 

EFHK - Helsinki/Vantaa, Finland
Ilmasuunta ja etäisyys Sääasema Lakkasuosta: IKO 25km
Päivitetty: 16/11/2018 06:50
Light drizzle, Vaihtelevaa
Light drizzle, Vaihtelevaa
 Tuulen suunta ELO
Tuuli: ELO 24 km/h
Lämpötila: 9°C
Hyytävyys: 6°C
Kastepiste: 8°C
Kosteus: 94%
Ilmanpaine: 1032 hPa
Yhteenveto: Light Drizzle
Pilvet: Vaihtelevaa
Näkyvyys: 7 km
Pilvitiedot: Vaihtelevaa 152 m
2018/11/16 04:50 EFHK 160450Z 20013KT 7000 -DZ OVC005 09/08 Q1032 TEMPO 8000
EFHF - Helsinki/Malmi, Finland
Ilmasuunta ja etäisyys Sääasema Lakkasuosta: I 29km
Päivitetty: 06/03/2017 17:50
NOT Current
Selkeätä
Selkeätä
 Tuulen suunta KO
Tuuli: KO 11 km/h
Lämpötila: -2°C
Hyytävyys: -6°C
Kastepiste: -11°C
Kosteus: 51%
Ilmanpaine: 1021 hPa
Yhteenveto: Selkeätä
Näkyvyys: enemmän kuin 10 km
2017/03/06 15:50 EFHF 061550Z 04006KT 330V100 CAVOK M02/M11 Q1021
 
EETN - Tallinn, Estonia
Ilmasuunta ja etäisyys Sääasema Lakkasuosta: E 97km
Päivitetty: 16/11/2018 06:50
Vaihtelevaa
Vaihtelevaa
 Tuulen suunta ELO
Tuuli: ELO 20 km/h
Lämpötila: 7°C
Hyytävyys: 4°C
Kastepiste: 6°C
Kosteus: 93%
Ilmanpaine: 1035 hPa
Pilvet: Vaihtelevaa
Näkyvyys: 10 km
Pilvitiedot: Vaihtelevaa 305 m
2018/11/16 04:50 EETN 160450Z 21011KT 9999 OVC010 07/06 Q1035 R08/15//95 NOSIG
EFTU - Turku/Abo, Finland
Ilmasuunta ja etäisyys Sääasema Lakkasuosta: LLU 127km
Päivitetty: 16/11/2018 06:50
Vaihtelevaa
Vaihtelevaa
 Tuulen suunta LO
Tuuli: LO 17 km/h
Lämpötila: 8°C
Hyytävyys: 5°C
Kastepiste: 8°C
Kosteus: 100%
Ilmanpaine: 1031 hPa
Pilvet: Vaihtelevaa
Näkyvyys: 7 km
Pilvitiedot: Vaihtelevaa 91 m
2018/11/16 04:50 EFTU 160450Z AUTO 23009KT 7000 OVC003/// 08/08 Q1031
 
EFTP - Tampere/Pirkkala, Finland
Ilmasuunta ja etäisyys Sääasema Lakkasuosta: PLU 138km
Päivitetty: 16/11/2018 06:50
Vaihtelevaa
Vaihtelevaa
 Tuulen suunta ELO
Tuuli: ELO 17 km/h
Lämpötila: 8°C
Hyytävyys: 5°C
Kastepiste: 8°C
Kosteus: 100%
Ilmanpaine: 1030 hPa
Pilvet: Vaihtelevaa
Näkyvyys: 8 km
Pilvitiedot: Osittain pilvistä 91 m
Enimmäkseen pilvistä 152 m
Vaihtelevaa 213 m
2018/11/16 04:50 EFTP 160450Z AUTO 20009KT 8000 FEW003 BKN005 OVC007 08/08 Q1030
EFPO - Pori (mil/Civ), Finland
Ilmasuunta ja etäisyys Sääasema Lakkasuosta: LU 199km
Päivitetty: 16/11/2018 06:50
Vaihtelevaa
Vaihtelevaa
 Tuulen suunta ELO
Tuuli: ELO 15 km/h
Lämpötila: 9°C
Hyytävyys: 7°C
Kastepiste: 8°C
Kosteus: 94%
Ilmanpaine: 1029 hPa
Pilvet: Vaihtelevaa
Näkyvyys: 10 km
Pilvitiedot: Vaihtelevaa 183 m
2018/11/16 04:50 EFPO 160450Z AUTO 21008KT 180V240 9999 OVC006/// 09/08 Q1029
 
EFLP - Lappeenranta, Finland
Ilmasuunta ja etäisyys Sääasema Lakkasuosta: IKO 216km
Päivitetty: 16/11/2018 06:50
Mist, Vaihtelevaa
Mist, Vaihtelevaa
 Tuulen suunta ELO
Tuuli: ELO 15 km/h
Lämpötila: 7°C
Hyytävyys: 4°C
Kastepiste: 6°C
Kosteus: 93%
Ilmanpaine: 1032 hPa
Yhteenveto: Mist
Pilvet: Vaihtelevaa
Näkyvyys: 5 km
Pilvitiedot: Vaihtelevaa 122 m
2018/11/16 04:50 EFLP 160450Z AUTO 21008KT 180V240 5000 BR OVC004 07/06 Q1032
EFMI - Mikkeli, Finland
Ilmasuunta ja etäisyys Sääasema Lakkasuosta: KO 220km
Päivitetty: 16/11/2018 06:50
Vaihtelevaa
Vaihtelevaa
 Tuulen suunta ELO
Tuuli: ELO 9 km/h
Lämpötila: 8°C
Hyytävyys: 6°C
Kastepiste: 7°C
Kosteus: 93%
Ilmanpaine: 1030 hPa
Pilvet: Vaihtelevaa
Näkyvyys: 6 km
Pilvitiedot: Vaihtelevaa 183 m
2018/11/16 04:50 EFMI 160450Z AUTO 21005KT 160V280 6000 OVC006 08/07 Q1030
 
EFJY - Jyvaskyla (mil/C, Finland
Ilmasuunta ja etäisyys Sääasema Lakkasuosta: PKO 245km
Päivitetty: 16/11/2018 06:50
Mist, Vaihtelevaa
Mist, Vaihtelevaa
 Tuulen suunta ELO
Tuuli: ELO 13 km/h
Lämpötila: 7°C
Hyytävyys: 5°C
Kastepiste: 7°C
Kosteus: 100%
Ilmanpaine: 1028 hPa
Yhteenveto: Mist
Pilvet: Vaihtelevaa
Näkyvyys: 4 km
Pilvitiedot: Vaihtelevaa 152 m
2018/11/16 04:50 EFJY 160450Z AUTO 20007KT 4000 BR OVC005 07/07 Q1028
EFMA - Mariehamn/Aland, Finland
Ilmasuunta ja etäisyys Sääasema Lakkasuosta: L 257km
Päivitetty: 16/11/2018 06:50
Vaihtelevaa
Vaihtelevaa
 Tuulen suunta LO
Tuuli: LO 15 km/h
Lämpötila: 9°C
Hyytävyys: 7°C
Kastepiste: 7°C
Kosteus: 87%
Ilmanpaine: 1031 hPa
Pilvet: Vaihtelevaa
Näkyvyys: 10 km
Pilvitiedot: Vaihtelevaa 1433 m
2018/11/16 04:50 EFMA 160450Z 22008KT 180V250 9999 OVC047 09/07 Q1031
 
EFVR - Varkaus, Finland
Ilmasuunta ja etäisyys Sääasema Lakkasuosta: KO 277km
Päivitetty: 15/04/2016 08:50
NOT Current
Selkeätä
Selkeätä
 Tuulen suunta PLU
Tuuli: PLU 15 km/h
Lämpötila: -1°C
Hyytävyys: -6°C
Kastepiste: -8°C
Kosteus: 59%
Ilmanpaine: 1005 hPa
Yhteenveto: Selkeätä
Näkyvyys: enemmän kuin 10 km
2016/04/15 05:50 EFVR 150550Z AUTO 33008KT CAVOK M01/M08 Q1005
EFSI - Seinajoki-Ilmajo, Finland
Ilmasuunta ja etäisyys Sääasema Lakkasuosta: PLU 285km
Päivitetty: 16/11/2018 06:50
Vaihtelevaa
Vaihtelevaa
 Tuulen suunta ELO
Tuuli: ELO 19 km/h
Lämpötila: 9°C
Hyytävyys: 6°C
Kastepiste: 8°C
Kosteus: 94%
Ilmanpaine: 1026 hPa
Pilvet: Vaihtelevaa
Näkyvyys: 10 km
Pilvitiedot: Puolipilvistä 213 m
Vaihtelevaa 274 m
2018/11/16 04:50 EFSI 160450Z AUTO 20010KT 150V260 9999 SCT007 OVC009 09/08 Q1026
 
KSJC - San Jose, California, USA
Ilmasuunta ja etäisyys Sääasema Lakkasuosta: PLU 8758km
Päivitetty: 16/11/2018 06:53
Haze, Vaihtelevaa
Haze, Vaihtelevaa
 Tuulen suunta IKA
Tuuli: IKA 6 km/h
Lämpötila: 11°C
Kastepiste: 1°C
Kosteus: 50%
Ilmanpaine: 1018.3 hPa
Yhteenveto: Haze
Pilvet: Vaihtelevaa
Näkyvyys: 3 km
Pilvitiedot: Osittain pilvistä 30 m
Enimmäkseen pilvistä 610 m
Vaihtelevaa 914 m
2018/11/16 04:53 KSJC 160453Z 12003KT 2SM HZ FEW001 BKN020 OVC030 11/01 A3007 RMK AO2 SLP182 FU FEW001 FU BKN020 FU OVC030 T01110006